createdAt,value
2017-11-23T00:00:15.420Z,989
2017-11-23T00:00:35.636Z,989
2017-11-23T00:00:55.864Z,989
2017-11-23T00:01:16.087Z,989
2017-11-23T00:01:36.319Z,989
2017-11-23T00:01:56.541Z,989
2017-11-23T00:02:16.749Z,989
2017-11-23T00:02:36.950Z,989
2017-11-23T00:02:57.158Z,989
2017-11-23T00:03:17.376Z,989
2017-11-23T00:03:37.600Z,989
2017-11-23T00:03:57.825Z,989
2017-11-23T00:04:18.041Z,989
2017-11-23T00:04:38.252Z,989
2017-11-23T00:04:58.470Z,989
2017-11-23T00:05:18.669Z,989
2017-11-23T00:05:38.895Z,989
2017-11-23T00:05:59.114Z,989
2017-11-23T00:06:19.335Z,989
2017-11-23T00:06:39.536Z,989
2017-11-23T00:06:59.758Z,989
2017-11-23T00:07:19.973Z,989
2017-11-23T00:07:40.183Z,989
2017-11-23T00:08:00.394Z,989
2017-11-23T00:08:20.604Z,989
2017-11-23T00:08:40.815Z,989
2017-11-23T00:09:01.031Z,989.1
2017-11-23T00:09:21.249Z,989
2017-11-23T00:09:41.465Z,989
2017-11-23T00:10:01.671Z,989.1
2017-11-23T00:10:21.905Z,989
2017-11-23T00:10:42.104Z,989
2017-11-23T00:11:02.327Z,989.1
2017-11-23T00:11:22.559Z,989.1
2017-11-23T00:11:42.775Z,989.1
2017-11-23T00:12:02.982Z,989.1
2017-11-23T00:12:23.204Z,989.1
2017-11-23T00:12:43.416Z,989.1
2017-11-23T00:13:03.614Z,989.1
2017-11-23T00:13:23.827Z,989.1
2017-11-23T00:13:44.038Z,989.1
2017-11-23T00:14:04.252Z,989.1
2017-11-23T00:14:24.462Z,989.1
2017-11-23T00:14:44.664Z,989.1
2017-11-23T00:15:04.879Z,989.1
2017-11-23T00:15:25.093Z,989.1
2017-11-23T00:15:45.315Z,989
2017-11-23T00:16:05.531Z,989.1
2017-11-23T00:16:25.780Z,989.1
2017-11-23T00:16:45.996Z,989
2017-11-23T00:17:06.220Z,989.1
2017-11-23T00:17:26.422Z,989
2017-11-23T00:17:46.637Z,989
2017-11-23T00:18:06.853Z,989
2017-11-23T00:18:27.074Z,989
2017-11-23T00:18:47.288Z,989
2017-11-23T00:19:07.500Z,989
2017-11-23T00:19:27.717Z,989
2017-11-23T00:19:47.944Z,989
2017-11-23T00:20:08.152Z,989
2017-11-23T00:20:28.371Z,989.1
2017-11-23T00:20:48.580Z,989
2017-11-23T00:21:08.801Z,989
2017-11-23T00:21:29.017Z,989
2017-11-23T00:21:49.239Z,989.1
2017-11-23T00:22:09.445Z,989
2017-11-23T00:22:29.662Z,989.1
2017-11-23T00:22:49.880Z,989
2017-11-23T00:23:10.103Z,989
2017-11-23T00:23:30.351Z,989
2017-11-23T00:23:50.577Z,989
2017-11-23T00:24:10.779Z,989
2017-11-23T00:24:30.997Z,989
2017-11-23T00:24:51.227Z,989
2017-11-23T00:25:11.434Z,989
2017-11-23T00:25:31.640Z,989
2017-11-23T00:25:51.871Z,989
2017-11-23T00:26:12.080Z,989
2017-11-23T00:26:32.304Z,989
2017-11-23T00:26:52.517Z,989
2017-11-23T00:27:12.735Z,989
2017-11-23T00:27:32.939Z,989
2017-11-23T00:27:53.166Z,989
2017-11-23T00:28:13.438Z,989
2017-11-23T00:28:33.663Z,989
2017-11-23T00:28:53.892Z,989
2017-11-23T00:29:14.125Z,989
2017-11-23T00:29:34.366Z,988.9
2017-11-23T00:29:54.577Z,989
2017-11-23T00:30:14.789Z,989
2017-11-23T00:30:35.001Z,988.9
2017-11-23T00:30:55.211Z,988.9
2017-11-23T00:31:15.423Z,988.9
2017-11-23T00:31:35.630Z,988.9
2017-11-23T00:31:55.829Z,988.9
2017-11-23T00:32:16.066Z,988.9
2017-11-23T00:32:36.292Z,988.9
2017-11-23T00:32:56.493Z,988.9
2017-11-23T00:33:16.720Z,988.9
2017-11-23T00:33:36.934Z,988.9
2017-11-23T00:33:57.148Z,988.9
2017-11-23T00:34:17.361Z,988.8
2017-11-23T00:34:37.563Z,988.9
2017-11-23T00:34:57.769Z,988.9
2017-11-23T00:35:17.997Z,988.9
2017-11-23T00:35:38.209Z,988.8
2017-11-23T00:35:58.415Z,988.8
2017-11-23T00:36:18.639Z,988.8
2017-11-23T00:36:38.855Z,988.8
2017-11-23T00:36:59.056Z,988.8
2017-11-23T00:37:19.289Z,988.9
2017-11-23T00:37:39.525Z,988.9
2017-11-23T00:37:59.738Z,988.9
2017-11-23T00:38:19.986Z,988.8
2017-11-23T00:38:40.150Z,988.9
2017-11-23T00:39:00.362Z,988.8
2017-11-23T00:39:20.568Z,988.8
2017-11-23T00:39:40.792Z,988.8
2017-11-23T00:40:00.995Z,988.9
2017-11-23T00:40:21.209Z,988.8
2017-11-23T00:40:41.440Z,988.8
2017-11-23T00:41:01.646Z,988.8
2017-11-23T00:41:21.865Z,988.8
2017-11-23T00:41:42.083Z,988.9
2017-11-23T00:42:02.291Z,988.9
2017-11-23T00:42:22.496Z,988.9
2017-11-23T00:42:42.718Z,988.9
2017-11-23T00:43:02.928Z,988.9
2017-11-23T00:43:23.149Z,988.9
2017-11-23T00:43:43.367Z,988.9
2017-11-23T00:44:03.572Z,988.9
2017-11-23T00:44:23.803Z,988.9
2017-11-23T00:44:44.011Z,988.9
2017-11-23T00:45:04.222Z,988.9
2017-11-23T00:45:24.442Z,988.9
2017-11-23T00:45:44.642Z,988.9
2017-11-23T00:46:04.859Z,988.9
2017-11-23T00:46:25.069Z,988.9
2017-11-23T00:46:45.290Z,988.9
2017-11-23T00:47:05.511Z,988.9
2017-11-23T00:47:25.726Z,988.9
2017-11-23T00:47:45.943Z,988.9
2017-11-23T00:48:06.154Z,988.9
2017-11-23T00:48:26.372Z,988.8
2017-11-23T00:48:46.572Z,988.8
2017-11-23T00:49:06.797Z,988.8
2017-11-23T00:49:27.001Z,988.9
2017-11-23T00:49:47.211Z,988.8
2017-11-23T00:50:07.446Z,988.8
2017-11-23T00:50:27.636Z,988.8
2017-11-23T00:50:47.853Z,988.7
2017-11-23T00:51:08.080Z,988.8
2017-11-23T00:51:28.291Z,988.8
2017-11-23T00:51:48.501Z,988.7
2017-11-23T00:52:08.724Z,988.8
2017-11-23T00:52:28.947Z,988.8
2017-11-23T00:52:49.158Z,988.8
2017-11-23T00:53:09.373Z,988.8
2017-11-23T00:53:29.582Z,988.8
2017-11-23T00:53:49.792Z,988.8
2017-11-23T00:54:09.999Z,988.8
2017-11-23T00:54:30.252Z,988.8
2017-11-23T00:54:50.490Z,988.8
2017-11-23T00:55:10.732Z,988.8
2017-11-23T00:55:30.941Z,988.8
2017-11-23T00:55:51.148Z,988.8
2017-11-23T00:56:11.346Z,988.7
2017-11-23T00:56:31.561Z,988.7
2017-11-23T00:56:51.792Z,988.7
2017-11-23T00:57:11.996Z,988.8
2017-11-23T00:57:32.214Z,988.8
2017-11-23T00:57:52.426Z,988.8
2017-11-23T00:58:12.666Z,988.8
2017-11-23T00:58:32.872Z,988.8
2017-11-23T00:58:53.083Z,988.8
2017-11-23T00:59:13.306Z,988.8
2017-11-23T00:59:33.533Z,988.8
2017-11-23T00:59:53.748Z,988.8
2017-11-23T01:00:13.964Z,988.8
2017-11-23T01:00:34.173Z,988.8
2017-11-23T01:00:54.395Z,988.7
2017-11-23T01:01:14.604Z,988.8
2017-11-23T01:01:34.798Z,988.8
2017-11-23T01:01:55.008Z,988.8
2017-11-23T01:02:15.220Z,988.8
2017-11-23T01:02:35.434Z,988.8
2017-11-23T01:02:55.661Z,988.8
2017-11-23T01:03:15.874Z,988.8
2017-11-23T01:03:36.105Z,988.8
2017-11-23T01:03:56.306Z,988.8
2017-11-23T01:04:16.543Z,988.8
2017-11-23T01:04:36.758Z,988.8
2017-11-23T01:04:56.986Z,988.8
2017-11-23T01:05:17.200Z,988.8
2017-11-23T01:05:37.410Z,988.8
2017-11-23T01:05:57.622Z,988.8
2017-11-23T01:06:17.865Z,988.8
2017-11-23T01:06:38.059Z,988.8
2017-11-23T01:06:58.305Z,988.8
2017-11-23T01:07:18.498Z,988.7
2017-11-23T01:07:38.713Z,988.7
2017-11-23T01:07:58.934Z,988.8
2017-11-23T01:08:19.158Z,988.8
2017-11-23T01:08:39.380Z,988.8
2017-11-23T01:08:59.592Z,988.8
2017-11-23T01:09:19.805Z,988.8
2017-11-23T01:09:40.016Z,988.8
2017-11-23T01:10:00.230Z,988.8
2017-11-23T01:10:20.461Z,988.8
2017-11-23T01:10:40.674Z,988.7
2017-11-23T01:11:00.887Z,988.8
2017-11-23T01:11:21.102Z,988.7
2017-11-23T01:11:41.329Z,988.8
2017-11-23T01:12:01.521Z,988.8
2017-11-23T01:12:21.731Z,988.8
2017-11-23T01:12:41.952Z,988.8
2017-11-23T01:13:02.149Z,988.8
2017-11-23T01:13:22.365Z,988.8
2017-11-23T01:13:42.585Z,988.8
2017-11-23T01:14:02.809Z,988.8
2017-11-23T01:14:23.037Z,988.8
2017-11-23T01:14:43.240Z,988.8
2017-11-23T01:15:03.468Z,988.8
2017-11-23T01:15:23.688Z,988.8
2017-11-23T01:15:43.919Z,988.9
2017-11-23T01:16:04.128Z,988.9
2017-11-23T01:16:24.332Z,988.8
2017-11-23T01:16:44.543Z,988.8
2017-11-23T01:17:04.755Z,988.8
2017-11-23T01:17:24.965Z,988.9
2017-11-23T01:17:45.188Z,988.9
2017-11-23T01:18:05.414Z,988.9
2017-11-23T01:18:25.621Z,988.9
2017-11-23T01:18:45.841Z,988.9
2017-11-23T01:19:06.055Z,988.9
2017-11-23T01:19:26.269Z,988.9
2017-11-23T01:19:46.482Z,988.9
2017-11-23T01:20:06.699Z,988.9
2017-11-23T01:20:26.920Z,988.9
2017-11-23T01:20:47.139Z,988.9
2017-11-23T01:21:07.357Z,988.9
2017-11-23T01:21:27.560Z,988.9
2017-11-23T01:21:47.778Z,989
2017-11-23T01:22:07.989Z,988.9
2017-11-23T01:22:28.205Z,988.9
2017-11-23T01:22:48.416Z,988.9
2017-11-23T01:23:08.642Z,989
2017-11-23T01:23:28.864Z,988.9
2017-11-23T01:23:49.080Z,988.9
2017-11-23T01:24:09.273Z,988.9
2017-11-23T01:24:29.489Z,989
2017-11-23T01:24:49.708Z,989
2017-11-23T01:25:09.929Z,988.9
2017-11-23T01:25:30.152Z,988.9
2017-11-23T01:25:50.362Z,989
2017-11-23T01:26:10.568Z,988.9
2017-11-23T01:26:30.777Z,989
2017-11-23T01:26:50.994Z,988.9
2017-11-23T01:27:11.194Z,989
2017-11-23T01:27:31.406Z,989
2017-11-23T01:27:51.605Z,989
2017-11-23T01:28:11.813Z,989
2017-11-23T01:28:32.028Z,989
2017-11-23T01:28:53.923Z,989
2017-11-23T01:29:14.227Z,989
2017-11-23T01:29:34.438Z,989
2017-11-23T01:29:54.634Z,989
2017-11-23T01:30:15.836Z,989
2017-11-23T01:30:36.058Z,989
2017-11-23T01:30:56.285Z,989
2017-11-23T01:31:16.506Z,989
2017-11-23T01:31:36.744Z,989
2017-11-23T01:31:56.952Z,989
2017-11-23T01:32:17.165Z,989
2017-11-23T01:32:37.391Z,989
2017-11-23T01:32:57.597Z,989
2017-11-23T01:33:17.804Z,989
2017-11-23T01:33:38.020Z,989
2017-11-23T01:33:58.253Z,989
2017-11-23T01:34:18.469Z,988.9
2017-11-23T01:34:38.689Z,989
2017-11-23T01:34:58.905Z,989
2017-11-23T01:35:19.126Z,988.9
2017-11-23T01:35:39.339Z,989
2017-11-23T01:35:59.548Z,989
2017-11-23T01:36:19.765Z,988.9
2017-11-23T01:36:39.977Z,989
2017-11-23T01:37:00.191Z,988.9
2017-11-23T01:37:20.416Z,988.9
2017-11-23T01:37:40.628Z,988.9
2017-11-23T01:38:00.850Z,988.9
2017-11-23T01:38:21.060Z,988.9
2017-11-23T01:38:41.285Z,988.9
2017-11-23T01:39:01.494Z,988.9
2017-11-23T01:39:21.709Z,988.9
2017-11-23T01:39:41.919Z,988.9
2017-11-23T01:40:02.146Z,988.9
2017-11-23T01:40:22.371Z,988.9
2017-11-23T01:40:42.581Z,988.9
2017-11-23T01:41:02.796Z,988.9
2017-11-23T01:41:23.020Z,988.9
2017-11-23T01:41:43.228Z,988.9
2017-11-23T01:42:03.448Z,988.9
2017-11-23T01:42:23.666Z,988.9
2017-11-23T01:42:43.897Z,988.9
2017-11-23T01:43:04.118Z,988.8
2017-11-23T01:43:24.341Z,988.8
2017-11-23T01:43:44.560Z,988.8
2017-11-23T01:44:04.791Z,988.8
2017-11-23T01:44:25.001Z,988.8
2017-11-23T01:44:45.231Z,988.8
2017-11-23T01:45:05.439Z,988.8
2017-11-23T01:45:25.659Z,988.8
2017-11-23T01:45:45.872Z,988.8
2017-11-23T01:46:06.097Z,988.7
2017-11-23T01:46:26.311Z,988.8
2017-11-23T01:46:46.533Z,988.8
2017-11-23T01:47:06.756Z,988.8
2017-11-23T01:47:26.992Z,988.8
2017-11-23T01:47:47.200Z,988.8
2017-11-23T01:48:07.409Z,988.8
2017-11-23T01:48:27.622Z,988.8
2017-11-23T01:48:47.837Z,988.8
2017-11-23T01:49:08.032Z,988.8
2017-11-23T01:49:28.246Z,988.8
2017-11-23T01:49:48.457Z,988.8
2017-11-23T01:50:08.676Z,988.8
2017-11-23T01:50:28.856Z,988.8
2017-11-23T01:50:49.072Z,988.8
2017-11-23T01:51:09.295Z,988.8
2017-11-23T01:51:29.514Z,988.8
2017-11-23T01:51:49.738Z,988.8
2017-11-23T01:52:09.961Z,988.8
2017-11-23T01:52:30.178Z,988.7
2017-11-23T01:52:50.385Z,988.8
2017-11-23T01:53:10.592Z,988.7
2017-11-23T01:53:30.817Z,988.7
2017-11-23T01:53:51.027Z,988.7
2017-11-23T01:54:11.256Z,988.7
2017-11-23T01:54:31.471Z,988.7
2017-11-23T01:54:51.717Z,988.7
2017-11-23T01:55:11.904Z,988.7
2017-11-23T01:55:32.117Z,988.7
2017-11-23T01:55:52.326Z,988.7
2017-11-23T01:56:12.540Z,988.7
2017-11-23T01:56:32.742Z,988.6
2017-11-23T01:56:52.966Z,988.7
2017-11-23T01:57:13.189Z,988.7
2017-11-23T01:57:33.409Z,988.6
2017-11-23T01:57:53.636Z,988.7
2017-11-23T01:58:13.852Z,988.6
2017-11-23T01:58:34.066Z,988.6
2017-11-23T01:58:54.280Z,988.6
2017-11-23T01:59:14.497Z,988.6
2017-11-23T01:59:34.712Z,988.6
2017-11-23T01:59:54.926Z,988.6
2017-11-23T02:00:15.154Z,988.6
2017-11-23T02:00:35.383Z,988.6
2017-11-23T02:00:55.588Z,988.5
2017-11-23T02:01:15.802Z,988.5
2017-11-23T02:01:36.015Z,988.5
2017-11-23T02:01:56.230Z,988.5
2017-11-23T02:02:16.443Z,988.5
2017-11-23T02:02:36.645Z,988.5
2017-11-23T02:02:56.864Z,988.5
2017-11-23T02:03:17.091Z,988.4
2017-11-23T02:03:37.282Z,988.5
2017-11-23T02:03:57.497Z,988.4
2017-11-23T02:04:17.716Z,988.5
2017-11-23T02:04:37.932Z,988.4
2017-11-23T02:04:58.154Z,988.4
2017-11-23T02:05:18.368Z,988.5
2017-11-23T02:05:38.584Z,988.4
2017-11-23T02:05:58.803Z,988.4
2017-11-23T02:06:19.018Z,988.5
2017-11-23T02:06:39.220Z,988.4
2017-11-23T02:06:59.440Z,988.4
2017-11-23T02:07:19.655Z,988.4
2017-11-23T02:07:39.884Z,988.4
2017-11-23T02:08:00.088Z,988.4
2017-11-23T02:08:20.295Z,988.4
2017-11-23T02:08:40.517Z,988.4
2017-11-23T02:09:00.734Z,988.4
2017-11-23T02:09:20.946Z,988.4
2017-11-23T02:09:41.166Z,988.4
2017-11-23T02:10:01.379Z,988.4
2017-11-23T02:10:21.598Z,988.4
2017-11-23T02:10:41.827Z,988.4
2017-11-23T02:11:02.044Z,988.4
2017-11-23T02:11:22.257Z,988.4
2017-11-23T02:11:42.474Z,988.4
2017-11-23T02:12:02.693Z,988.4
2017-11-23T02:12:22.920Z,988.4
2017-11-23T02:12:43.137Z,988.4
2017-11-23T02:13:03.368Z,988.4
2017-11-23T02:13:23.579Z,988.4
2017-11-23T02:13:43.780Z,988.4
2017-11-23T02:14:03.991Z,988.4
2017-11-23T02:14:24.227Z,988.4
2017-11-23T02:14:44.439Z,988.5
2017-11-23T02:15:04.649Z,988.4
2017-11-23T02:15:24.891Z,988.5
2017-11-23T02:15:45.105Z,988.5
2017-11-23T02:16:05.309Z,988.5
2017-11-23T02:16:25.535Z,988.5
2017-11-23T02:16:45.737Z,988.5
2017-11-23T02:17:06.003Z,988.5
2017-11-23T02:17:26.231Z,988.5
2017-11-23T02:17:46.433Z,988.5
2017-11-23T02:18:06.644Z,988.5
2017-11-23T02:18:26.877Z,988.5
2017-11-23T02:18:47.081Z,988.5
2017-11-23T02:19:07.293Z,988.6
2017-11-23T02:19:27.510Z,988.6
2017-11-23T02:19:47.738Z,988.6
2017-11-23T02:20:07.940Z,988.5
2017-11-23T02:20:28.163Z,988.6
2017-11-23T02:20:48.384Z,988.5
2017-11-23T02:21:08.618Z,988.6
2017-11-23T02:21:28.829Z,988.6
2017-11-23T02:21:49.042Z,988.5
2017-11-23T02:22:09.251Z,988.6
2017-11-23T02:22:29.457Z,988.6
2017-11-23T02:22:49.657Z,988.6
2017-11-23T02:23:09.865Z,988.6
2017-11-23T02:23:30.216Z,988.6
2017-11-23T02:23:50.433Z,988.6
2017-11-23T02:24:10.647Z,988.6
2017-11-23T02:24:30.869Z,988.6
2017-11-23T02:24:51.083Z,988.5
2017-11-23T02:25:11.286Z,988.5
2017-11-23T02:25:31.524Z,988.5
2017-11-23T02:25:51.719Z,988.5
2017-11-23T02:26:11.924Z,988.5
2017-11-23T02:26:32.136Z,988.5
2017-11-23T02:26:52.347Z,988.5
2017-11-23T02:27:12.565Z,988.6
2017-11-23T02:27:32.774Z,988.5
2017-11-23T02:27:52.989Z,988.5
2017-11-23T02:28:13.192Z,988.5
2017-11-23T02:28:33.425Z,988.5
2017-11-23T02:28:53.634Z,988.5
2017-11-23T02:29:13.842Z,988.5
2017-11-23T02:29:34.054Z,988.5
2017-11-23T02:29:54.272Z,988.4
2017-11-23T02:30:14.495Z,988.4
2017-11-23T02:30:34.696Z,988.5
2017-11-23T02:30:54.932Z,988.4
2017-11-23T02:31:15.151Z,988.4
2017-11-23T02:31:35.372Z,988.4
2017-11-23T02:31:55.581Z,988.4
2017-11-23T02:32:15.766Z,988.4
2017-11-23T02:32:35.983Z,988.5
2017-11-23T02:32:56.216Z,988.4
2017-11-23T02:33:16.440Z,988.4
2017-11-23T02:33:36.647Z,988.4
2017-11-23T02:33:56.861Z,988.4
2017-11-23T02:34:17.091Z,988.4
2017-11-23T02:34:37.306Z,988.5
2017-11-23T02:34:57.524Z,988.4
2017-11-23T02:35:17.729Z,988.4
2017-11-23T02:35:37.928Z,988.5
2017-11-23T02:35:58.167Z,988.4
2017-11-23T02:36:18.423Z,988.4
2017-11-23T02:36:38.609Z,988.4
2017-11-23T02:36:58.825Z,988.4
2017-11-23T02:37:19.042Z,988.4
2017-11-23T02:37:39.271Z,988.5
2017-11-23T02:37:59.465Z,988.4
2017-11-23T02:38:19.684Z,988.4
2017-11-23T02:38:39.899Z,988.5
2017-11-23T02:39:00.114Z,988.5
2017-11-23T02:39:20.338Z,988.5
2017-11-23T02:39:40.547Z,988.5
2017-11-23T02:40:00.755Z,988.5
2017-11-23T02:40:20.973Z,988.4
2017-11-23T02:40:41.186Z,988.5
2017-11-23T02:41:01.419Z,988.5
2017-11-23T02:41:21.627Z,988.5
2017-11-23T02:41:41.835Z,988.5
2017-11-23T02:42:02.067Z,988.5
2017-11-23T02:42:22.301Z,988.5
2017-11-23T02:42:42.497Z,988.5
2017-11-23T02:43:02.709Z,988.5
2017-11-23T02:43:22.922Z,988.5
2017-11-23T02:43:43.144Z,988.5
2017-11-23T02:44:03.353Z,988.5
2017-11-23T02:44:23.582Z,988.6
2017-11-23T02:44:43.791Z,988.5
2017-11-23T02:45:04.009Z,988.5
2017-11-23T02:45:24.217Z,988.6
2017-11-23T02:45:44.436Z,988.5
2017-11-23T02:46:04.646Z,988.6
2017-11-23T02:46:24.854Z,988.6
2017-11-23T02:46:45.055Z,988.6
2017-11-23T02:47:05.276Z,988.6
2017-11-23T02:47:25.478Z,988.6
2017-11-23T02:47:45.689Z,988.6
2017-11-23T02:48:05.919Z,988.6
2017-11-23T02:48:26.140Z,988.6
2017-11-23T02:48:46.353Z,988.6
2017-11-23T02:49:06.578Z,988.6
2017-11-23T02:49:26.807Z,988.6
2017-11-23T02:49:47.016Z,988.6
2017-11-23T02:50:07.268Z,988.6
2017-11-23T02:50:27.481Z,988.6
2017-11-23T02:50:47.688Z,988.6
2017-11-23T02:51:07.906Z,988.6
2017-11-23T02:51:28.120Z,988.6
2017-11-23T02:51:48.346Z,988.6
2017-11-23T02:52:08.549Z,988.5
2017-11-23T02:52:28.772Z,988.6
2017-11-23T02:52:48.971Z,988.6
2017-11-23T02:53:09.203Z,988.6
2017-11-23T02:53:29.404Z,988.6
2017-11-23T02:53:49.626Z,988.6
2017-11-23T02:54:09.852Z,988.6
2017-11-23T02:54:30.071Z,988.6
2017-11-23T02:54:50.294Z,988.6
2017-11-23T02:55:10.501Z,988.6
2017-11-23T02:55:30.732Z,988.6
2017-11-23T02:55:50.943Z,988.6
2017-11-23T02:56:11.160Z,988.6
2017-11-23T02:56:31.376Z,988.5
2017-11-23T02:56:51.580Z,988.6
2017-11-23T02:57:11.802Z,988.5
2017-11-23T02:57:32.013Z,988.5
2017-11-23T02:57:52.226Z,988.5
2017-11-23T02:58:12.436Z,988.5
2017-11-23T02:58:32.656Z,988.5
2017-11-23T02:58:52.860Z,988.5
2017-11-23T02:59:13.077Z,988.6
2017-11-23T02:59:33.287Z,988.5
2017-11-23T02:59:53.498Z,988.6
2017-11-23T03:00:13.708Z,988.5
2017-11-23T03:00:33.915Z,988.5
2017-11-23T03:00:54.132Z,988.5
2017-11-23T03:01:14.349Z,988.5
2017-11-23T03:01:34.569Z,988.5
2017-11-23T03:01:54.777Z,988.5
2017-11-23T03:02:14.989Z,988.5
2017-11-23T03:02:35.214Z,988.5
2017-11-23T03:02:55.420Z,988.5
2017-11-23T03:03:15.629Z,988.5
2017-11-23T03:03:35.826Z,988.5
2017-11-23T03:03:56.063Z,988.5
2017-11-23T03:04:16.284Z,988.5
2017-11-23T03:04:36.484Z,988.5
2017-11-23T03:04:56.695Z,988.5
2017-11-23T03:05:16.893Z,988.5
2017-11-23T03:05:37.114Z,988.5
2017-11-23T03:05:57.329Z,988.4
2017-11-23T03:06:17.589Z,988.5
2017-11-23T03:06:37.793Z,988.5
2017-11-23T03:06:57.998Z,988.5
2017-11-23T03:07:18.209Z,988.5
2017-11-23T03:07:38.415Z,988.5
2017-11-23T03:07:58.629Z,988.5
2017-11-23T03:08:18.844Z,988.5
2017-11-23T03:08:39.051Z,988.5
2017-11-23T03:08:59.283Z,988.5
2017-11-23T03:09:19.493Z,988.5
2017-11-23T03:09:39.704Z,988.4
2017-11-23T03:09:59.930Z,988.5
2017-11-23T03:10:20.144Z,988.5
2017-11-23T03:10:40.361Z,988.5
2017-11-23T03:11:00.596Z,988.5
2017-11-23T03:11:20.823Z,988.4
2017-11-23T03:11:41.040Z,988.4
2017-11-23T03:12:01.273Z,988.5
2017-11-23T03:12:21.495Z,988.4
2017-11-23T03:12:41.741Z,988.5
2017-11-23T03:13:01.949Z,988.5
2017-11-23T03:13:22.153Z,988.5
2017-11-23T03:13:42.365Z,988.5
2017-11-23T03:14:02.580Z,988.5
2017-11-23T03:14:22.799Z,988.5
2017-11-23T03:14:43.015Z,988.5
2017-11-23T03:15:03.247Z,988.5
2017-11-23T03:15:23.461Z,988.5
2017-11-23T03:15:43.665Z,988.5
2017-11-23T03:16:03.878Z,988.5
2017-11-23T03:16:24.084Z,988.5
2017-11-23T03:16:44.306Z,988.5
2017-11-23T03:17:04.509Z,988.5
2017-11-23T03:17:24.739Z,988.5
2017-11-23T03:17:44.945Z,988.5
2017-11-23T03:18:05.174Z,988.5
2017-11-23T03:18:25.382Z,988.5
2017-11-23T03:18:45.602Z,988.5
2017-11-23T03:19:05.808Z,988.5
2017-11-23T03:19:26.028Z,988.5
2017-11-23T03:19:46.229Z,988.5
2017-11-23T03:20:06.443Z,988.5
2017-11-23T03:20:26.653Z,988.5
2017-11-23T03:20:46.871Z,988.5
2017-11-23T03:21:07.077Z,988.5
2017-11-23T03:21:27.296Z,988.6
2017-11-23T03:21:47.520Z,988.5
2017-11-23T03:22:07.755Z,988.5
2017-11-23T03:22:27.968Z,988.6
2017-11-23T03:22:48.167Z,988.5
2017-11-23T03:23:08.379Z,988.5
2017-11-23T03:23:28.585Z,988.5
2017-11-23T03:23:48.805Z,988.5
2017-11-23T03:24:09.027Z,988.5
2017-11-23T03:24:29.258Z,988.5
2017-11-23T03:24:49.454Z,988.5
2017-11-23T03:25:09.675Z,988.5
2017-11-23T03:25:29.883Z,988.5
2017-11-23T03:25:50.105Z,988.5
2017-11-23T03:26:10.326Z,988.5
2017-11-23T03:26:30.541Z,988.5
2017-11-23T03:26:50.760Z,988.5
2017-11-23T03:27:10.969Z,988.5
2017-11-23T03:27:31.191Z,988.5
2017-11-23T03:27:51.392Z,988.5
2017-11-23T03:28:11.610Z,988.5
2017-11-23T03:28:31.811Z,988.5
2017-11-23T03:28:52.030Z,988.4
2017-11-23T03:29:12.267Z,988.5
2017-11-23T03:29:32.469Z,988.5
2017-11-23T03:29:52.678Z,988.4
2017-11-23T03:30:12.900Z,988.4
2017-11-23T03:30:33.110Z,988.4
2017-11-23T03:30:53.317Z,988.4
2017-11-23T03:31:13.534Z,988.4
2017-11-23T03:31:33.739Z,988.4
2017-11-23T03:31:53.956Z,988.4
2017-11-23T03:32:14.164Z,988.4
2017-11-23T03:32:34.381Z,988.3
2017-11-23T03:32:54.596Z,988.3
2017-11-23T03:33:14.826Z,988.3
2017-11-23T03:33:35.060Z,988.3
2017-11-23T03:33:55.272Z,988.3
2017-11-23T03:34:15.474Z,988.3
2017-11-23T03:34:35.682Z,988.3
2017-11-23T03:34:55.912Z,988.3
2017-11-23T03:35:16.131Z,988.3
2017-11-23T03:35:36.340Z,988.3
2017-11-23T03:35:56.555Z,988.3
2017-11-23T03:36:16.779Z,988.3
2017-11-23T03:36:36.999Z,988.3
2017-11-23T03:36:57.211Z,988.3
2017-11-23T03:37:17.441Z,988.3
2017-11-23T03:37:37.659Z,988.2
2017-11-23T03:37:57.870Z,988.3
2017-11-23T03:38:18.082Z,988.3
2017-11-23T03:38:38.304Z,988.3
2017-11-23T03:38:58.507Z,988.3
2017-11-23T03:39:18.719Z,988.3
2017-11-23T03:39:38.923Z,988.3
2017-11-23T03:39:59.139Z,988.3
2017-11-23T03:40:19.334Z,988.2
2017-11-23T03:40:39.540Z,988.3
2017-11-23T03:40:59.755Z,988.3
2017-11-23T03:41:19.975Z,988.3
2017-11-23T03:41:40.188Z,988.3
2017-11-23T03:42:00.409Z,988.3
2017-11-23T03:42:20.599Z,988.2
2017-11-23T03:42:40.830Z,988.3
2017-11-23T03:43:01.061Z,988.3
2017-11-23T03:43:21.266Z,988.2
2017-11-23T03:43:41.480Z,988.2
2017-11-23T03:44:01.711Z,988.3
2017-11-23T03:44:21.934Z,988.3
2017-11-23T03:44:42.163Z,988.3
2017-11-23T03:45:02.372Z,988.3
2017-11-23T03:45:22.587Z,988.3
2017-11-23T03:45:42.811Z,988.3
2017-11-23T03:46:03.016Z,988.2
2017-11-23T03:46:23.239Z,988.3
2017-11-23T03:46:43.462Z,988.3
2017-11-23T03:47:03.680Z,988.2
2017-11-23T03:47:23.919Z,988.2
2017-11-23T03:47:44.175Z,988.2
2017-11-23T03:48:04.342Z,988.3
2017-11-23T03:48:24.554Z,988.3
2017-11-23T03:48:44.771Z,988.3
2017-11-23T03:49:04.996Z,988.2
2017-11-23T03:49:25.221Z,988.3
2017-11-23T03:49:45.446Z,988.2
2017-11-23T03:50:05.674Z,988.3
2017-11-23T03:50:25.884Z,988.2
2017-11-23T03:50:46.101Z,988.3
2017-11-23T03:51:06.324Z,988.3
2017-11-23T03:51:27.221Z,988.3
2017-11-23T03:51:47.763Z,988.2
2017-11-23T03:52:08.228Z,988.2
2017-11-23T03:52:28.532Z,988.3
2017-11-23T03:52:49.654Z,988.3
2017-11-23T03:53:09.958Z,988.2
2017-11-23T03:53:30.171Z,988.2
2017-11-23T03:53:50.388Z,988.3
2017-11-23T03:54:10.643Z,988.2
2017-11-23T03:54:30.860Z,988.2
2017-11-23T03:54:51.080Z,988.3
2017-11-23T03:55:11.302Z,988.2
2017-11-23T03:55:31.499Z,988.2
2017-11-23T03:55:51.762Z,988.2
2017-11-23T03:56:11.950Z,988.2
2017-11-23T03:56:32.339Z,988.2
2017-11-23T03:56:52.591Z,988.2
2017-11-23T03:57:12.805Z,988.1
2017-11-23T03:57:33.022Z,988.2
2017-11-23T03:57:53.235Z,988.2
2017-11-23T03:58:13.457Z,988.2
2017-11-23T03:58:33.683Z,988.2
2017-11-23T03:58:53.915Z,988.2
2017-11-23T03:59:14.109Z,988.2
2017-11-23T03:59:34.337Z,988.2
2017-11-23T03:59:54.554Z,988.2
2017-11-23T04:00:14.760Z,988.1
2017-11-23T04:00:34.988Z,988.2
2017-11-23T04:00:55.199Z,988.2
2017-11-23T04:01:15.406Z,988.2
2017-11-23T04:01:35.629Z,988.2
2017-11-23T04:01:55.828Z,988.1
2017-11-23T04:02:16.049Z,988.2
2017-11-23T04:02:37.239Z,988.2
2017-11-23T04:02:57.535Z,988.2
2017-11-23T04:03:17.776Z,988.1
2017-11-23T04:03:37.972Z,988.2
2017-11-23T04:03:58.182Z,988.1
2017-11-23T04:04:18.415Z,988.2
2017-11-23T04:04:38.634Z,988.2
2017-11-23T04:04:58.859Z,988.2
2017-11-23T04:05:19.432Z,988.2
2017-11-23T04:05:39.800Z,988.2
2017-11-23T04:06:00.219Z,988.2
2017-11-23T04:06:20.432Z,988.2
2017-11-23T04:06:40.648Z,988.2
2017-11-23T04:07:00.860Z,988.2
2017-11-23T04:07:21.259Z,988.2
2017-11-23T04:07:41.462Z,988.2
2017-11-23T04:08:01.697Z,988.2
2017-11-23T04:08:21.904Z,988.2
2017-11-23T04:08:42.120Z,988.2
2017-11-23T04:09:02.336Z,988.2
2017-11-23T04:09:22.543Z,988.2
2017-11-23T04:09:42.747Z,988.2
2017-11-23T04:10:02.952Z,988.1
2017-11-23T04:10:23.193Z,988.2
2017-11-23T04:10:43.408Z,988.1
2017-11-23T04:11:03.622Z,988.2
2017-11-23T04:11:23.853Z,988.2
2017-11-23T04:11:44.197Z,988.2
2017-11-23T04:12:04.423Z,988.2
2017-11-23T04:12:24.625Z,988.2
2017-11-23T04:12:44.865Z,988.1
2017-11-23T04:13:05.076Z,988.1
2017-11-23T04:13:25.299Z,988.1
2017-11-23T04:13:45.515Z,988.1
2017-11-23T04:14:05.720Z,988.1
2017-11-23T04:14:25.935Z,988.1
2017-11-23T04:14:46.159Z,988.1
2017-11-23T04:15:06.375Z,988.1
2017-11-23T04:15:26.879Z,988.1
2017-11-23T04:15:47.304Z,988.1
2017-11-23T04:16:07.527Z,988.1
2017-11-23T04:16:27.744Z,988.1
2017-11-23T04:16:47.942Z,988.1
2017-11-23T04:17:08.170Z,988.1
2017-11-23T04:17:28.425Z,988
2017-11-23T04:17:48.632Z,988
2017-11-23T04:18:08.853Z,988
2017-11-23T04:18:29.066Z,988
2017-11-23T04:18:49.301Z,988.1
2017-11-23T04:19:09.566Z,988.1
2017-11-23T04:19:29.773Z,988
2017-11-23T04:19:49.993Z,988
2017-11-23T04:20:10.197Z,988
2017-11-23T04:20:30.430Z,988
2017-11-23T04:20:50.655Z,988
2017-11-23T04:21:11.044Z,988
2017-11-23T04:21:31.260Z,988.1
2017-11-23T04:21:51.474Z,988
2017-11-23T04:22:11.700Z,988
2017-11-23T04:22:31.941Z,988
2017-11-23T04:22:52.158Z,988.1